createdAt,value
2019-01-16T00:00:09.011Z,1001.97
2019-01-16T00:01:09.045Z,1001.91
2019-01-16T00:02:09.247Z,1001.99
2019-01-16T00:03:09.052Z,1001.93
2019-01-16T00:04:08.970Z,1001.89
2019-01-16T00:05:08.961Z,1001.76
2019-01-16T00:06:08.956Z,1001.76
2019-01-16T00:07:08.945Z,1001.76
2019-01-16T00:08:08.982Z,1001.73
2019-01-16T00:09:08.936Z,1001.78
2019-01-16T00:10:08.914Z,1001.81
2019-01-16T00:11:08.958Z,1001.92
2019-01-16T00:12:08.883Z,1001.89
2019-01-16T00:13:08.934Z,1001.86
2019-01-16T00:14:08.895Z,1001.71
2019-01-16T00:15:08.901Z,1001.72
2019-01-16T00:16:08.849Z,1001.64
2019-01-16T00:17:08.862Z,1001.55
2019-01-16T00:18:08.997Z,1001.89
2019-01-16T00:19:08.956Z,1001.74
2019-01-16T00:20:08.971Z,1001.75
2019-01-16T00:21:09.436Z,1001.72
2019-01-16T00:22:08.805Z,1001.84
2019-01-16T00:23:08.805Z,1001.72
2019-01-16T00:24:08.775Z,1001.71
2019-01-16T00:25:08.789Z,1001.73
2019-01-16T00:26:08.736Z,1001.70
2019-01-16T00:27:08.728Z,1001.67
2019-01-16T00:28:08.725Z,1001.77
2019-01-16T00:29:08.710Z,1001.79
2019-01-16T00:30:08.698Z,1001.83
2019-01-16T00:31:08.713Z,1001.84
2019-01-16T00:32:08.668Z,1001.74
2019-01-16T00:33:08.664Z,1001.80
2019-01-16T00:34:08.662Z,1001.83
2019-01-16T00:35:08.643Z,1001.68
2019-01-16T00:36:08.661Z,1001.76
2019-01-16T00:37:08.615Z,1001.93
2019-01-16T00:38:08.603Z,1001.83
2019-01-16T00:39:08.602Z,1001.91
2019-01-16T00:40:08.589Z,1001.79
2019-01-16T00:41:08.585Z,1001.83
2019-01-16T00:42:08.601Z,1001.91
2019-01-16T00:43:08.567Z,1001.79
2019-01-16T00:44:08.570Z,1001.86
2019-01-16T00:45:08.541Z,1001.81
2019-01-16T00:46:08.524Z,1002.04
2019-01-16T00:47:08.518Z,1001.90
2019-01-16T00:48:08.529Z,1001.83
2019-01-16T00:49:08.500Z,1001.85
2019-01-16T00:50:08.475Z,1001.86
2019-01-16T00:51:08.469Z,1001.98
2019-01-16T00:52:08.464Z,1001.94
2019-01-16T00:53:08.484Z,1002.04
2019-01-16T00:54:08.450Z,1001.95
2019-01-16T00:55:08.422Z,1002.10
2019-01-16T00:56:08.412Z,1001.94
2019-01-16T00:57:08.402Z,1002.04
2019-01-16T00:58:08.396Z,1002.00
2019-01-16T00:59:08.440Z,1002.07
2019-01-16T01:00:08.377Z,1001.92
2019-01-16T01:01:08.367Z,1002.01
2019-01-16T01:02:08.355Z,1001.99
2019-01-16T01:03:08.340Z,1002.02
2019-01-16T01:04:08.333Z,1002.10
2019-01-16T01:05:08.347Z,1002.08
2019-01-16T01:06:08.324Z,1002.11
2019-01-16T01:07:08.302Z,1002.13
2019-01-16T01:08:08.284Z,1002.16
2019-01-16T01:09:08.281Z,1002.14
2019-01-16T01:10:08.289Z,1002.20
2019-01-16T01:11:08.263Z,1002.11
2019-01-16T01:12:08.248Z,1002.19
2019-01-16T01:13:08.264Z,1002.34
2019-01-16T01:14:08.221Z,1002.29
2019-01-16T01:15:08.236Z,1002.06
2019-01-16T01:16:08.195Z,1002.17
2019-01-16T01:17:08.182Z,1002.35
2019-01-16T01:18:08.180Z,1002.36
2019-01-16T01:19:08.169Z,1002.45
2019-01-16T01:20:08.155Z,1002.30
2019-01-16T01:21:08.160Z,1002.38
2019-01-16T01:22:08.130Z,1002.39
2019-01-16T01:23:08.176Z,1002.31
2019-01-16T01:24:08.116Z,1002.51
2019-01-16T01:25:08.104Z,1002.39
2019-01-16T01:26:08.118Z,1002.34
2019-01-16T01:27:08.081Z,1002.37
2019-01-16T01:28:08.069Z,1002.37
2019-01-16T01:29:08.055Z,1002.47
2019-01-16T01:30:08.052Z,1002.35
2019-01-16T01:31:08.067Z,1002.53
2019-01-16T01:32:08.052Z,1002.44
2019-01-16T01:33:08.020Z,1002.57
2019-01-16T01:34:08.007Z,1002.33
2019-01-16T01:35:08.014Z,1002.37
2019-01-16T01:36:07.992Z,1002.55
2019-01-16T01:37:07.975Z,1002.47
2019-01-16T01:38:07.998Z,1002.52
2019-01-16T01:39:07.946Z,1002.54
2019-01-16T01:40:07.939Z,1002.53
2019-01-16T01:41:07.935Z,1002.47
2019-01-16T01:42:07.919Z,1002.43
2019-01-16T01:43:07.913Z,1002.44
2019-01-16T01:44:07.955Z,1002.60
2019-01-16T01:45:07.891Z,1002.44
2019-01-16T01:46:07.881Z,1002.51
2019-01-16T01:47:07.865Z,1002.47
2019-01-16T01:48:07.854Z,1002.51
2019-01-16T01:49:07.846Z,1002.48
2019-01-16T01:50:07.857Z,1002.50
2019-01-16T01:51:07.840Z,1002.52
2019-01-16T01:52:07.818Z,1002.59
2019-01-16T01:53:07.800Z,1002.58
2019-01-16T01:54:07.792Z,1002.60
2019-01-16T01:55:07.812Z,1002.47
2019-01-16T01:56:07.772Z,1002.57
2019-01-16T01:57:07.765Z,1002.51
2019-01-16T01:58:07.751Z,1002.58
2019-01-16T01:59:07.736Z,1002.64
2019-01-16T02:00:07.732Z,1002.61
2019-01-16T02:01:07.740Z,1002.63
2019-01-16T02:02:07.703Z,1002.58
2019-01-16T02:03:07.710Z,1002.65
2019-01-16T02:04:07.703Z,1002.64
2019-01-16T02:05:07.675Z,1002.65
2019-01-16T02:06:07.735Z,1002.68
2019-01-16T02:07:07.655Z,1002.65
2019-01-16T02:08:07.640Z,1002.62
2019-01-16T02:09:07.633Z,1002.57
2019-01-16T02:10:07.625Z,1002.67
2019-01-16T02:11:07.604Z,1002.59
2019-01-16T02:12:07.620Z,1002.70
2019-01-16T02:13:07.615Z,1002.71
2019-01-16T02:14:07.594Z,1002.71
2019-01-16T02:15:07.569Z,1002.69
2019-01-16T02:16:07.564Z,1002.85
2019-01-16T02:17:07.627Z,1002.84
2019-01-16T02:18:07.546Z,1002.88
2019-01-16T02:19:07.562Z,1002.96
2019-01-16T02:20:07.512Z,1002.87
2019-01-16T02:21:07.500Z,1002.73
2019-01-16T02:22:07.493Z,1002.96
2019-01-16T02:23:07.517Z,1002.94
2019-01-16T02:24:07.478Z,1002.90
2019-01-16T02:25:07.456Z,1003.00
2019-01-16T02:26:07.444Z,1002.90
2019-01-16T02:27:07.445Z,1003.03
2019-01-16T02:28:07.438Z,1002.97
2019-01-16T02:29:07.452Z,1003.03
2019-01-16T02:30:07.421Z,1003.05
2019-01-16T02:31:07.395Z,1003.07
2019-01-16T02:32:07.383Z,1003.07
2019-01-16T02:33:07.384Z,1003.03
2019-01-16T02:34:07.368Z,1003.01
2019-01-16T02:35:07.380Z,1003.06
2019-01-16T02:36:07.351Z,1003.12
2019-01-16T02:37:07.343Z,1003.06
2019-01-16T02:38:07.331Z,1003.14
2019-01-16T02:39:07.310Z,1003.11
2019-01-16T02:40:07.322Z,1003.07
2019-01-16T02:41:07.346Z,1003.03
2019-01-16T02:42:07.295Z,1003.11
2019-01-16T02:43:07.282Z,1003.14
2019-01-16T02:44:07.264Z,1003.10
2019-01-16T02:45:07.246Z,1003.09
2019-01-16T02:46:07.265Z,1003.19
2019-01-16T02:47:07.241Z,1003.11
2019-01-16T02:48:07.234Z,1003.15
2019-01-16T02:49:07.220Z,1003.19
2019-01-16T02:50:07.200Z,1003.16
2019-01-16T02:51:07.204Z,1003.13
2019-01-16T02:52:07.171Z,1003.12
2019-01-16T02:53:07.159Z,1003.19
2019-01-16T02:54:07.156Z,1003.17
2019-01-16T02:55:07.154Z,1003.15
2019-01-16T02:56:07.177Z,1003.16
2019-01-16T02:57:07.128Z,1003.21
2019-01-16T02:58:07.111Z,1003.21
2019-01-16T02:59:07.100Z,1003.17
2019-01-16T03:00:07.092Z,1003.21
2019-01-16T03:01:07.085Z,1003.25
2019-01-16T03:02:07.094Z,1003.19
2019-01-16T03:03:07.059Z,1003.22
2019-01-16T03:04:07.050Z,1003.25
2019-01-16T03:05:07.032Z,1003.20
2019-01-16T03:06:07.022Z,1003.18
2019-01-16T03:07:07.044Z,1003.18
2019-01-16T03:08:07.011Z,1003.19
2019-01-16T03:09:06.994Z,1003.20
2019-01-16T03:10:06.983Z,1003.26
2019-01-16T03:11:06.966Z,1003.29
2019-01-16T03:12:06.979Z,1003.34
2019-01-16T03:13:06.956Z,1003.22
2019-01-16T03:14:06.973Z,1003.22
2019-01-16T03:15:06.937Z,1003.25
2019-01-16T03:16:06.919Z,1003.26
2019-01-16T03:17:06.917Z,1003.23
2019-01-16T03:18:06.906Z,1003.21
2019-01-16T03:19:06.914Z,1003.25
2019-01-16T03:20:06.896Z,1003.28
2019-01-16T03:21:06.876Z,1003.25
2019-01-16T03:22:06.894Z,1003.23
2019-01-16T03:23:06.846Z,1003.27
2019-01-16T03:24:06.841Z,1003.30
2019-01-16T03:25:06.842Z,1003.20
2019-01-16T03:26:06.810Z,1003.23
2019-01-16T03:27:06.826Z,1003.24
2019-01-16T03:28:06.792Z,1003.23
2019-01-16T03:29:06.779Z,1003.30
2019-01-16T03:30:06.791Z,1003.27
2019-01-16T03:31:06.794Z,1003.27
2019-01-16T03:32:06.784Z,1003.24
2019-01-16T03:33:06.746Z,1003.31
2019-01-16T03:34:06.734Z,1003.28
2019-01-16T03:35:06.742Z,1003.31
2019-01-16T03:36:06.711Z,1003.28
2019-01-16T03:37:06.701Z,1003.20
2019-01-16T03:38:06.686Z,1003.24
2019-01-16T03:39:06.680Z,1003.29
2019-01-16T03:40:06.717Z,1003.27
2019-01-16T03:41:06.690Z,1003.21
2019-01-16T03:42:06.650Z,1003.22
2019-01-16T03:43:06.669Z,1003.24
2019-01-16T03:44:06.632Z,1003.21
2019-01-16T03:45:06.616Z,1003.29
2019-01-16T03:46:06.664Z,1003.26
2019-01-16T03:47:06.595Z,1003.28
2019-01-16T03:48:06.581Z,1003.29
2019-01-16T03:49:13.380Z,1003.25
2019-01-16T03:50:07.559Z,1003.28
2019-01-16T03:51:06.560Z,1003.25
2019-01-16T03:52:06.561Z,1003.28
2019-01-16T03:53:06.538Z,1003.18
2019-01-16T03:54:06.559Z,1003.19
2019-01-16T03:55:06.508Z,1003.21
2019-01-16T03:56:06.500Z,1003.17
2019-01-16T03:57:06.486Z,1003.22
2019-01-16T03:58:06.500Z,1003.17
2019-01-16T03:59:06.502Z,1003.17
2019-01-16T04:00:06.465Z,1003.16
2019-01-16T04:01:06.440Z,1003.11
2019-01-16T04:02:06.450Z,1003.20
2019-01-16T04:03:06.427Z,1003.11
2019-01-16T04:04:06.455Z,1003.14
2019-01-16T04:05:06.426Z,1003.10
2019-01-16T04:06:06.399Z,1003.15
2019-01-16T04:07:06.380Z,1003.13
2019-01-16T04:08:06.369Z,1003.07
2019-01-16T04:09:06.383Z,1003.07
2019-01-16T04:10:06.374Z,1003.16
2019-01-16T04:11:06.341Z,1003.11
2019-01-16T04:12:06.327Z,1003.05
2019-01-16T04:13:06.318Z,1002.93
2019-01-16T04:14:06.351Z,1003.07
2019-01-16T04:15:06.293Z,1002.98
2019-01-16T04:16:06.276Z,1003.07
2019-01-16T04:17:06.280Z,1003.07
2019-01-16T04:18:06.262Z,1003.04
2019-01-16T04:19:06.252Z,1003.03
2019-01-16T04:20:06.254Z,1003.06
2019-01-16T04:21:06.223Z,1003.04
2019-01-16T04:22:06.285Z,1002.98
2019-01-16T04:23:06.204Z,1003.00
2019-01-16T04:24:06.197Z,1002.94
2019-01-16T04:25:06.242Z,1003.00
2019-01-16T04:26:06.222Z,1002.94
2019-01-16T04:27:06.169Z,1003.01
2019-01-16T04:28:06.168Z,1002.90
2019-01-16T04:29:06.145Z,1002.99
2019-01-16T04:30:06.127Z,1002.91
2019-01-16T04:31:06.147Z,1002.96
2019-01-16T04:32:06.117Z,1002.86
2019-01-16T04:33:06.097Z,1002.96
2019-01-16T04:34:06.085Z,1003.01
2019-01-16T04:35:06.116Z,1002.91
2019-01-16T04:36:06.094Z,1002.92
2019-01-16T04:37:06.058Z,1002.94
2019-01-16T04:38:06.094Z,1002.96
2019-01-16T04:39:06.040Z,1003.00
2019-01-16T04:40:06.024Z,1002.95
2019-01-16T04:41:06.044Z,1002.96
2019-01-16T04:42:06.017Z,1002.92
2019-01-16T04:43:06.005Z,1002.94
2019-01-16T04:44:05.993Z,1002.90
2019-01-16T04:45:05.991Z,1002.92
2019-01-16T04:46:05.991Z,1002.92
2019-01-16T04:47:05.950Z,1002.89
2019-01-16T04:48:05.937Z,1002.88
2019-01-16T04:49:05.939Z,1002.89
2019-01-16T04:50:05.936Z,1002.97
2019-01-16T04:51:05.968Z,1002.98
2019-01-16T04:52:05.924Z,1002.93
2019-01-16T04:53:05.890Z,1002.89
2019-01-16T04:54:05.886Z,1002.90
2019-01-16T04:55:05.871Z,1002.91
2019-01-16T04:56:05.864Z,1002.86
2019-01-16T04:57:05.877Z,1002.88
2019-01-16T04:58:05.877Z,1002.85
2019-01-16T04:59:05.826Z,1002.79
2019-01-16T05:00:05.819Z,1002.85
2019-01-16T05:01:05.827Z,1002.85
2019-01-16T05:02:05.854Z,1002.80
2019-01-16T05:03:05.794Z,1002.87
2019-01-16T05:04:05.780Z,1002.88
2019-01-16T05:05:05.768Z,1002.87
2019-01-16T05:06:05.750Z,1002.84
2019-01-16T05:07:05.793Z,1002.82
2019-01-16T05:08:05.733Z,1002.88
2019-01-16T05:09:05.733Z,1002.86
2019-01-16T05:10:05.709Z,1002.89
2019-01-16T05:11:05.695Z,1002.89
2019-01-16T05:12:05.689Z,1002.80
2019-01-16T05:13:05.708Z,1002.79
2019-01-16T05:14:05.673Z,1002.84
2019-01-16T05:15:05.677Z,1002.82
2019-01-16T05:16:05.648Z,1002.80
2019-01-16T05:17:05.635Z,1002.88
2019-01-16T05:18:05.620Z,1002.89
2019-01-16T05:19:05.646Z,1002.87
2019-01-16T05:20:05.638Z,1002.86
2019-01-16T05:21:05.629Z,1002.92
2019-01-16T05:22:05.591Z,1002.85
2019-01-16T05:23:05.593Z,1002.85
2019-01-16T05:24:05.556Z,1002.87
2019-01-16T05:25:05.574Z,1002.89
2019-01-16T05:26:05.541Z,1002.82
2019-01-16T05:27:05.538Z,1002.86
2019-01-16T05:28:05.542Z,1002.84
2019-01-16T05:29:05.514Z,1002.84
2019-01-16T05:30:05.502Z,1002.88
2019-01-16T05:31:05.507Z,1002.96
2019-01-16T05:32:05.506Z,1002.88
2019-01-16T05:33:05.462Z,1002.94
2019-01-16T05:34:05.486Z,1002.92
2019-01-16T05:35:05.447Z,1002.88
2019-01-16T05:36:05.466Z,1002.89
2019-01-16T05:37:05.424Z,1002.92
2019-01-16T05:38:05.420Z,1002.93
2019-01-16T05:39:05.411Z,1002.99
2019-01-16T05:40:05.410Z,1002.98
2019-01-16T05:41:05.426Z,1003.01
2019-01-16T05:42:05.418Z,1002.98
2019-01-16T05:43:05.366Z,1002.95
2019-01-16T05:44:05.345Z,1003.03
2019-01-16T05:45:05.345Z,1003.06
2019-01-16T05:46:05.368Z,1003.03
2019-01-16T05:47:05.319Z,1003.05
2019-01-16T05:48:05.313Z,1003.08
2019-01-16T05:49:05.296Z,1003.01
2019-01-16T05:50:05.320Z,1002.96
2019-01-16T05:51:05.269Z,1003.03
2019-01-16T05:52:05.265Z,1002.94
2019-01-16T05:53:05.255Z,1002.96
2019-01-16T05:54:05.281Z,1002.93
2019-01-16T05:55:05.227Z,1002.94
2019-01-16T05:56:05.271Z,1003.01
2019-01-16T05:57:05.228Z,1003.00
2019-01-16T05:58:05.193Z,1002.98
2019-01-16T05:59:05.194Z,1002.89
2019-01-16T06:00:05.176Z,1002.95
2019-01-16T06:01:05.172Z,1002.97
2019-01-16T06:02:05.203Z,1003.00
2019-01-16T06:03:05.139Z,1002.95
2019-01-16T06:04:05.129Z,1003.03
2019-01-16T06:05:05.115Z,1003.09
2019-01-16T06:06:05.103Z,1003.05
2019-01-16T06:07:05.101Z,1003.07
2019-01-16T06:08:05.125Z,1003.08
2019-01-16T06:09:05.083Z,1003.05
2019-01-16T06:10:05.067Z,1003.01
2019-01-16T06:11:05.061Z,1003.04
2019-01-16T06:12:05.044Z,1003.05
2019-01-16T06:13:05.089Z,1003.07
2019-01-16T06:14:05.059Z,1003.08
2019-01-16T06:15:05.271Z,1003.06
2019-01-16T06:16:05.047Z,1003.08
2019-01-16T06:17:04.996Z,1003.00
2019-01-16T06:18:05.021Z,1003.01
2019-01-16T06:19:04.991Z,1002.97
2019-01-16T06:20:05.058Z,1002.92
2019-01-16T06:21:04.958Z,1002.92
2019-01-16T06:22:04.972Z,1002.98
2019-01-16T06:23:04.936Z,1003.01
2019-01-16T06:24:04.922Z,1003.04
2019-01-16T06:25:04.931Z,1003.11
2019-01-16T06:26:04.909Z,1003.05
2019-01-16T06:27:04.923Z,1003.08
2019-01-16T06:28:05.003Z,1002.99
2019-01-16T06:29:04.900Z,1002.98
2019-01-16T06:30:04.856Z,1002.95
2019-01-16T06:31:04.929Z,1003.07
2019-01-16T06:32:04.841Z,1003.08
2019-01-16T06:33:04.826Z,1003.02
2019-01-16T06:34:04.834Z,1003.00
2019-01-16T06:35:04.803Z,1003.05
2019-01-16T06:36:04.862Z,1003.07
2019-01-16T06:37:04.803Z,1003.02
2019-01-16T06:38:04.810Z,1003.05
2019-01-16T06:39:04.810Z,1003.04
2019-01-16T06:40:04.765Z,1003.00
2019-01-16T06:41:04.770Z,1003.02
2019-01-16T06:42:04.751Z,1003.03
2019-01-16T06:43:04.759Z,1003.02
2019-01-16T06:44:04.759Z,1003.00
2019-01-16T06:45:04.702Z,1003.01
2019-01-16T06:46:04.686Z,1003.10
2019-01-16T06:47:04.682Z,1003.04
2019-01-16T06:48:04.696Z,1003.03
2019-01-16T06:49:04.682Z,1003.02
2019-01-16T06:50:04.649Z,1003.02
2019-01-16T06:51:04.629Z,1003.01
2019-01-16T06:52:04.616Z,1003.00
2019-01-16T06:53:04.619Z,1003.06
2019-01-16T06:54:04.622Z,1003.04
2019-01-16T06:55:04.619Z,1003.09
2019-01-16T06:56:04.587Z,1003.08
2019-01-16T06:57:04.563Z,1003.10
2019-01-16T06:58:04.562Z,1003.05
2019-01-16T06:59:04.577Z,1003.08
2019-01-16T07:00:04.553Z,1003.08
2019-01-16T07:01:04.538Z,1003.12
2019-01-16T07:02:04.542Z,1003.14
2019-01-16T07:03:04.621Z,1003.14
2019-01-16T07:04:04.528Z,1003.13
2019-01-16T07:05:04.502Z,1003.14
2019-01-16T07:06:04.473Z,1003.09
2019-01-16T07:07:04.469Z,1003.12
2019-01-16T07:08:04.452Z,1003.10
2019-01-16T07:09:04.455Z,1003.08
2019-01-16T07:10:04.470Z,1003.09
2019-01-16T07:11:04.417Z,1003.10
2019-01-16T07:12:04.461Z,1003.10
2019-01-16T07:13:04.407Z,1003.10
2019-01-16T07:14:04.387Z,1003.10
2019-01-16T07:15:04.427Z,1003.09
2019-01-16T07:16:04.372Z,1003.14
2019-01-16T07:17:04.390Z,1003.13
2019-01-16T07:18:04.340Z,1003.15
2019-01-16T07:19:04.338Z,1003.18
2019-01-16T07:20:09.606Z,1003.14
2019-01-16T07:21:05.347Z,1003.12
2019-01-16T07:22:04.307Z,1003.15
2019-01-16T07:23:04.345Z,1003.18
2019-01-16T07:24:04.337Z,1003.17
2019-01-16T07:25:04.277Z,1003.23
2019-01-16T07:26:04.276Z,1003.16
2019-01-16T07:27:04.252Z,1003.17
2019-01-16T07:28:04.315Z,1003.13
2019-01-16T07:29:04.226Z,1003.13
2019-01-16T07:30:04.220Z,1003.20
2019-01-16T07:31:04.261Z,1003.19
2019-01-16T07:32:04.204Z,1003.19
2019-01-16T07:33:04.189Z,1003.28
2019-01-16T07:34:04.180Z,1003.19
2019-01-16T07:35:04.160Z,1003.12
2019-01-16T07:36:04.152Z,1003.22
2019-01-16T07:37:04.185Z,1003.27
2019-01-16T07:38:04.127Z,1003.23
2019-01-16T07:39:04.123Z,1003.21
2019-01-16T07:40:04.122Z,1003.31
2019-01-16T07:41:04.135Z,1003.23
2019-01-16T07:42:04.121Z,1003.28
2019-01-16T07:43:04.074Z,1003.26
2019-01-16T07:44:04.064Z,1003.25
2019-01-16T07:45:04.063Z,1003.22
2019-01-16T07:46:04.057Z,1003.23
2019-01-16T07:47:04.122Z,1003.24
2019-01-16T07:48:04.024Z,1003.15
2019-01-16T07:49:04.018Z,1003.23
2019-01-16T07:50:04.026Z,1003.23
2019-01-16T07:51:04.003Z,1003.23
2019-01-16T07:52:03.985Z,1003.22
2019-01-16T07:53:04.001Z,1003.22
2019-01-16T07:54:04.077Z,1003.20
2019-01-16T07:55:03.952Z,1003.20
2019-01-16T07:56:03.956Z,1003.19
2019-01-16T07:57:03.980Z,1003.25
2019-01-16T07:58:03.957Z,1003.23
2019-01-16T07:59:03.921Z,1003.23
2019-01-16T08:00:03.926Z,1003.23
2019-01-16T08:01:03.980Z,1003.18
2019-01-16T08:02:03.879Z,1003.23
2019-01-16T08:03:03.899Z,1003.21
2019-01-16T08:04:03.903Z,1003.17
2019-01-16T08:05:03.851Z,1003.19
2019-01-16T08:06:03.843Z,1003.23
2019-01-16T08:07:03.821Z,1003.18
2019-01-16T08:08:03.815Z,1003.15
2019-01-16T08:09:03.820Z,1003.17
2019-01-16T08:10:03.828Z,1003.19
2019-01-16T08:11:03.783Z,1003.24
2019-01-16T08:12:03.772Z,1003.20
2019-01-16T08:13:03.796Z,1003.20
2019-01-16T08:14:03.784Z,1003.21
2019-01-16T08:15:03.739Z,1003.15
2019-01-16T08:16:03.734Z,1003.18
2019-01-16T08:17:03.726Z,1003.13
2019-01-16T08:18:03.779Z,1003.14
2019-01-16T08:19:03.692Z,1003.11
2019-01-16T08:20:03.680Z,1003.15
2019-01-16T08:21:03.699Z,1003.10
2019-01-16T08:22:03.687Z,1003.13
2019-01-16T08:23:03.659Z,1003.14
2019-01-16T08:24:03.654Z,1003.15
2019-01-16T08:25:03.630Z,1003.06
2019-01-16T08:26:03.623Z,1003.08
2019-01-16T08:27:03.627Z,1003.12
2019-01-16T08:28:03.605Z,1003.13
2019-01-16T08:29:03.628Z,1003.23
2019-01-16T08:30:03.578Z,1003.14
2019-01-16T08:31:03.569Z,1003.13
2019-01-16T08:32:03.607Z,1003.15
2019-01-16T08:33:03.541Z,1003.18
2019-01-16T08:34:03.641Z,1003.10
2019-01-16T08:35:03.533Z,1003.12
2019-01-16T08:36:03.551Z,1003.18
2019-01-16T08:37:03.503Z,1003.16
2019-01-16T08:38:03.529Z,1003.14
2019-01-16T08:39:03.478Z,1003.19
2019-01-16T08:40:03.465Z,1003.22
2019-01-16T08:41:03.459Z,1003.16
2019-01-16T08:42:03.471Z,1003.22
2019-01-16T08:43:03.466Z,1003.21
2019-01-16T08:44:03.436Z,1003.25
2019-01-16T08:45:03.421Z,1003.20
2019-01-16T08:46:03.407Z,1003.24
2019-01-16T08:47:03.394Z,1003.17
2019-01-16T08:48:03.412Z,1003.12
2019-01-16T08:49:03.382Z,1003.13
2019-01-16T08:50:03.369Z,1003.17
2019-01-16T08:51:03.350Z,1003.16
2019-01-16T08:52:03.341Z,1003.16
2019-01-16T08:53:03.359Z,1003.19
2019-01-16T08:54:03.413Z,1003.12
2019-01-16T08:55:03.311Z,1003.16
2019-01-16T08:56:03.311Z,1003.21
2019-01-16T08:57:03.356Z,1003.17
2019-01-16T08:58:03.283Z,1003.24
2019-01-16T08:59:03.306Z,1003.17
2019-01-16T09:00:03.260Z,1003.20
2019-01-16T09:01:03.245Z,1003.22
2019-01-16T09:02:03.226Z,1003.15
2019-01-16T09:03:03.225Z,1003.17
2019-01-16T09:04:03.248Z,1003.16
2019-01-16T09:05:03.248Z,1003.23
2019-01-16T09:06:03.187Z,1003.22
2019-01-16T09:07:03.183Z,1003.24
2019-01-16T09:08:03.173Z,1003.21
2019-01-16T09:09:03.167Z,1003.18
2019-01-16T09:10:03.516Z,1003.23
2019-01-16T09:11:03.176Z,1003.21
2019-01-16T09:12:03.128Z,1003.16
2019-01-16T09:13:03.117Z,1003.18
2019-01-16T09:14:03.103Z,1003.20
2019-01-16T09:15:03.105Z,1003.12
2019-01-16T09:16:03.090Z,1003.11
2019-01-16T09:17:03.105Z,1003.11
2019-01-16T09:18:03.065Z,1003.07
2019-01-16T09:19:03.049Z,1003.13
2019-01-16T09:20:03.071Z,1003.09
2019-01-16T09:21:03.037Z,1003.16
2019-01-16T09:22:03.061Z,1003.15
2019-01-16T09:23:03.020Z,1003.14
2019-01-16T09:24:02.998Z,1003.10
2019-01-16T09:25:02.992Z,1003.19
2019-01-16T09:26:02.975Z,1003.21
2019-01-16T09:27:02.999Z,1003.18
2019-01-16T09:28:02.961Z,1003.21
2019-01-16T09:29:02.956Z,1003.25
2019-01-16T09:30:02.964Z,1003.27
2019-01-16T09:31:02.921Z,1003.25
2019-01-16T09:32:02.934Z,1003.21
2019-01-16T09:33:02.901Z,1003.20
2019-01-16T09:34:02.900Z,1003.18
2019-01-16T09:35:02.888Z,1003.16
2019-01-16T09:36:02.909Z,1003.21
2019-01-16T09:37:02.857Z,1003.21
2019-01-16T09:38:02.842Z,1003.24
2019-01-16T09:39:02.839Z,1003.18
2019-01-16T09:40:02.829Z,1003.18
2019-01-16T09:41:02.824Z,1003.22
2019-01-16T09:42:02.845Z,1003.13
2019-01-16T09:43:02.792Z,1003.25
2019-01-16T09:44:02.787Z,1003.12
2019-01-16T09:45:02.775Z,1003.14
2019-01-16T09:46:02.766Z,1003.20
2019-01-16T09:47:02.782Z,1003.19
2019-01-16T09:48:02.751Z,1003.13
2019-01-16T09:49:02.734Z,1003.14
2019-01-16T09:50:02.722Z,1003.17
2019-01-16T09:51:02.718Z,1003.11
2019-01-16T09:52:02.734Z,1003.10
2019-01-16T09:53:02.695Z,1003.12
2019-01-16T09:54:02.698Z,1003.13
2019-01-16T09:55:02.662Z,1003.19
2019-01-16T09:56:02.662Z,1003.12
2019-01-16T09:57:02.654Z,1003.14
2019-01-16T09:58:02.656Z,1003.09
2019-01-16T09:59:02.632Z,1003.08
2019-01-16T10:00:02.625Z,1003.04
2019-01-16T10:01:02.607Z,1003.05
2019-01-16T10:02:02.602Z,1003.06
2019-01-16T10:03:02.606Z,1003.11
2019-01-16T10:04:02.567Z,1003.04
2019-01-16T10:05:02.595Z,1003.02
2019-01-16T10:06:02.555Z,1003.09
2019-01-16T10:07:02.550Z,1003.03
2019-01-16T10:08:02.537Z,1003.06
2019-01-16T10:09:02.565Z,1003.05
2019-01-16T10:10:02.504Z,1002.97
2019-01-16T10:11:02.574Z,1003.00
2019-01-16T10:12:02.527Z,1003.03
2019-01-16T10:13:02.510Z,1002.96
2019-01-16T10:14:02.474Z,1002.96
2019-01-16T10:15:02.454Z,1002.90
2019-01-16T10:16:02.455Z,1002.95
2019-01-16T10:17:02.434Z,1002.89
2019-01-16T10:18:02.454Z,1002.88
2019-01-16T10:19:02.415Z,1002.94
2019-01-16T10:20:02.444Z,1002.90
2019-01-16T10:21:02.393Z,1002.87
2019-01-16T10:22:02.385Z,1002.92
2019-01-16T10:23:02.398Z,1002.89
2019-01-16T10:24:02.381Z,1002.84
2019-01-16T10:25:02.353Z,1002.88
2019-01-16T10:26:02.347Z,1002.83
2019-01-16T10:27:02.324Z,1002.85
2019-01-16T10:28:02.321Z,1002.90
2019-01-16T10:29:02.345Z,1002.84
2019-01-16T10:30:02.294Z,1002.80
2019-01-16T10:31:02.297Z,1002.83
2019-01-16T10:32:02.280Z,1002.82
2019-01-16T10:33:02.264Z,1002.79
2019-01-16T10:34:02.423Z,1002.84
2019-01-16T10:35:02.238Z,1002.83
2019-01-16T10:36:02.229Z,1002.77
2019-01-16T10:37:02.299Z,1002.76
2019-01-16T10:38:02.206Z,1002.73
2019-01-16T10:39:02.262Z,1002.74
2019-01-16T10:40:03.583Z,1002.71
2019-01-16T10:41:02.201Z,1002.68
2019-01-16T10:42:02.170Z,1002.67
2019-01-16T10:43:02.188Z,1002.71
2019-01-16T10:44:02.159Z,1002.69
2019-01-16T10:45:02.163Z,1002.63
2019-01-16T10:46:02.187Z,1002.60
2019-01-16T10:47:02.113Z,1002.66
2019-01-16T10:48:02.104Z,1002.66
2019-01-16T10:49:02.097Z,1002.58
2019-01-16T10:50:02.120Z,1002.67
2019-01-16T10:51:03.230Z,1002.55
2019-01-16T10:52:02.075Z,1002.53
2019-01-16T10:53:02.083Z,1002.55
2019-01-16T10:54:02.069Z,1002.60
2019-01-16T10:55:02.064Z,1002.54
2019-01-16T10:56:02.079Z,1002.53
2019-01-16T10:57:02.028Z,1002.47
2019-01-16T10:58:02.028Z,1002.55
2019-01-16T10:59:01.997Z,1002.53
2019-01-16T11:00:01.990Z,1002.46
2019-01-16T11:01:02.050Z,1002.58
2019-01-16T11:02:01.958Z,1002.49
2019-01-16T11:03:01.946Z,1002.47
2019-01-16T11:04:01.960Z,1002.40
2019-01-16T11:05:01.961Z,1002.46
2019-01-16T11:06:01.954Z,1002.42
2019-01-16T11:07:01.905Z,1002.40
2019-01-16T11:08:01.889Z,1002.31
2019-01-16T11:09:01.935Z,1002.28
2019-01-16T11:10:01.913Z,1002.37
2019-01-16T11:11:01.859Z,1002.28
2019-01-16T11:12:01.959Z,1002.30
2019-01-16T11:13:01.889Z,1002.34
2019-01-16T11:14:01.860Z,1002.31
2019-01-16T11:15:01.842Z,1002.34
2019-01-16T11:16:01.866Z,1002.25
2019-01-16T11:17:01.855Z,1002.28
2019-01-16T11:18:01.826Z,1002.22
2019-01-16T11:19:01.825Z,1002.22
2019-01-16T11:20:01.766Z,1002.22
2019-01-16T11:21:01.820Z,1002.16
2019-01-16T11:22:01.826Z,1002.19
2019-01-16T11:23:01.811Z,1002.21
2019-01-16T11:24:01.735Z,1002.19
2019-01-16T11:25:01.769Z,1002.15
2019-01-16T11:26:01.802Z,1002.12
2019-01-16T11:27:01.729Z,1002.07
2019-01-16T11:28:01.708Z,1002.11
2019-01-16T11:29:01.684Z,1002.05
2019-01-16T11:30:01.673Z,1002.08
2019-01-16T11:31:01.640Z,1002.06
2019-01-16T11:32:01.640Z,1002.04
2019-01-16T11:33:01.651Z,1002.02
2019-01-16T11:34:01.747Z,1002.02
2019-01-16T11:35:01.623Z,1002.08
2019-01-16T11:36:01.618Z,1002.00
2019-01-16T11:37:01.633Z,1001.97
2019-01-16T11:38:01.606Z,1001.98
2019-01-16T11:39:01.593Z,1001.97
2019-01-16T11:40:04.958Z,1001.99
2019-01-16T11:41:01.541Z,1002.00
2019-01-16T11:42:01.529Z,1001.98
2019-01-16T11:43:01.583Z,1001.95
2019-01-16T11:44:01.573Z,1001.98
2019-01-16T11:45:01.500Z,1001.94
2019-01-16T11:46:01.501Z,1001.89
2019-01-16T11:47:01.476Z,1001.93
2019-01-16T11:48:01.463Z,1001.93
2019-01-16T11:49:01.490Z,1001.90
2019-01-16T11:50:01.452Z,1001.90
2019-01-16T11:51:01.440Z,1002.04
2019-01-16T11:52:01.492Z,1001.91
2019-01-16T11:53:01.419Z,1001.90
2019-01-16T11:54:01.434Z,1001.97
2019-01-16T11:55:01.400Z,1001.92
2019-01-16T11:56:01.385Z,1001.96
2019-01-16T11:57:01.389Z,1001.95
2019-01-16T11:58:01.388Z,1001.95
2019-01-16T11:59:01.340Z,1001.87
2019-01-16T12:00:01.344Z,1001.91
2019-01-16T12:01:01.349Z,1001.79
2019-01-16T12:02:01.334Z,1001.86
2019-01-16T12:03:01.336Z,1001.86
2019-01-16T12:04:01.299Z,1001.88
2019-01-16T12:05:01.280Z,1001.87